createdAt,value
2022-11-05T00:00:51.742Z,40.40
2022-11-05T00:03:38.314Z,40.60
2022-11-05T00:06:28.018Z,41.00
2022-11-05T00:09:14.717Z,38.10
2022-11-05T00:12:01.385Z,39.40
2022-11-05T00:14:48.038Z,42.70
2022-11-05T00:17:15.978Z,40.50
2022-11-05T00:19:43.835Z,46.40
2022-11-05T00:22:30.525Z,44.10
2022-11-05T00:25:17.116Z,45.90
2022-11-05T00:27:53.118Z,41.70
2022-11-05T00:30:24.415Z,44.10
2022-11-05T00:32:53.321Z,47.10
2022-11-05T00:35:22.669Z,50.30
2022-11-05T00:37:54.035Z,52.10
2022-11-05T00:40:24.798Z,56.60
2022-11-05T00:43:11.663Z,48.70
2022-11-05T00:45:41.212Z,44.30
2022-11-05T00:48:27.902Z,46.50
2022-11-05T00:50:55.896Z,43.70
2022-11-05T00:53:23.872Z,46.10
2022-11-05T00:55:51.934Z,43.40
2022-11-05T00:58:22.424Z,41.50
2022-11-05T01:00:53.701Z,39.20
2022-11-05T01:03:27.565Z,40.10
2022-11-05T01:06:07.625Z,39.90
2022-11-05T01:08:35.832Z,35.40
2022-11-05T01:11:10.794Z,25.60
2022-11-05T01:13:39.783Z,18.50
2022-11-05T01:16:10.346Z,18.10
2022-11-05T01:18:39.075Z,13.60
2022-11-05T01:21:14.181Z,15.70
2022-11-05T01:23:44.971Z,13.60
2022-11-05T01:26:12.868Z,13.20
2022-11-05T01:28:40.949Z,13.00
2022-11-05T01:31:08.979Z,10.40
2022-11-05T01:33:37.033Z,10.40
2022-11-05T01:36:05.290Z,9.40
2022-11-05T01:38:33.171Z,8.60
2022-11-05T01:41:01.106Z,8.20
2022-11-05T01:43:52.364Z,7.70
2022-11-05T01:46:29.543Z,8.00
2022-11-05T01:49:06.988Z,9.10
2022-11-05T01:51:35.060Z,8.70
2022-11-05T01:54:10.292Z,8.60
2022-11-05T01:56:47.055Z,8.40
2022-11-05T01:59:30.476Z,8.90
2022-11-05T02:02:00.895Z,8.30
2022-11-05T02:04:38.893Z,8.40
2022-11-05T02:07:09.371Z,7.90
2022-11-05T02:09:54.762Z,7.90
2022-11-05T02:12:24.251Z,9.30
2022-11-05T02:14:52.139Z,8.50
2022-11-05T02:17:57.813Z,9.10
2022-11-05T02:20:55.145Z,8.20
2022-11-05T02:23:47.701Z,7.80
2022-11-05T02:27:03.591Z,7.80
2022-11-05T02:32:30.960Z,9.60
2022-11-05T02:35:34.970Z,8.90
2022-11-05T02:38:10.578Z,8.70
2022-11-05T02:40:54.127Z,8.10
2022-11-05T02:43:46.619Z,7.80
2022-11-05T02:46:26.885Z,8.80
2022-11-05T02:49:19.108Z,8.00
2022-11-05T02:51:58.954Z,8.40
2022-11-05T02:54:45.855Z,7.90
2022-11-05T02:57:13.719Z,8.80
2022-11-05T02:59:41.571Z,8.80
2022-11-05T03:02:09.488Z,10.30
2022-11-05T03:04:37.619Z,8.90
2022-11-05T03:07:25.252Z,9.40
2022-11-05T03:10:08.603Z,9.70
2022-11-05T03:12:57.127Z,9.80
2022-11-05T03:16:00.672Z,10.10
2022-11-05T03:18:28.527Z,8.00
2022-11-05T03:21:27.720Z,7.40
2022-11-05T03:24:21.359Z,9.20
2022-11-05T03:26:56.602Z,7.80
2022-11-05T03:29:30.370Z,7.80
2022-11-05T03:32:02.473Z,11.20
2022-11-05T03:34:41.883Z,9.90
2022-11-05T03:37:11.059Z,6.60
2022-11-05T03:39:46.471Z,5.80
2022-11-05T03:42:18.811Z,6.80
2022-11-05T03:44:52.614Z,6.30
2022-11-05T03:47:26.482Z,6.70
2022-11-05T03:50:14.598Z,6.60
2022-11-05T03:53:07.642Z,6.80
2022-11-05T03:55:42.688Z,9.20
2022-11-05T03:58:13.247Z,6.10
2022-11-05T04:00:41.526Z,5.60
2022-11-05T04:03:09.684Z,6.00
2022-11-05T04:05:37.787Z,5.00
2022-11-05T04:08:24.502Z,6.40
2022-11-05T04:11:11.261Z,4.80
2022-11-05T04:13:39.131Z,5.20
2022-11-05T04:16:25.671Z,9.00
2022-11-05T04:18:53.605Z,14.70
2022-11-05T04:21:40.225Z,11.40
2022-11-05T04:24:08.356Z,10.00
2022-11-05T04:26:43.842Z,14.40
2022-11-05T04:29:30.438Z,8.40
2022-11-05T04:31:58.410Z,8.30
2022-11-05T04:34:26.291Z,7.40
2022-11-05T04:36:54.191Z,8.80
2022-11-05T04:39:22.082Z,6.50
2022-11-05T04:41:49.981Z,8.20
2022-11-05T04:44:17.911Z,6.90
2022-11-05T04:46:45.826Z,7.40
2022-11-05T04:49:13.717Z,6.80
2022-11-05T04:51:41.593Z,7.20
2022-11-05T04:54:09.472Z,7.70
2022-11-05T04:56:37.326Z,7.90
2022-11-05T04:59:05.231Z,8.00
2022-11-05T05:01:33.227Z,7.30
2022-11-05T05:04:01.439Z,8.30
2022-11-05T05:06:29.367Z,7.00
2022-11-05T05:08:57.304Z,6.80
2022-11-05T05:11:25.163Z,7.70
2022-11-05T05:13:53.008Z,8.30
2022-11-05T05:16:24.053Z,9.80
2022-11-05T05:18:53.132Z,7.00
2022-11-05T05:21:38.590Z,8.60
2022-11-05T05:24:18.783Z,6.80
2022-11-05T05:26:49.041Z,7.70
2022-11-05T05:29:18.069Z,9.90
2022-11-05T05:31:46.068Z,8.10
2022-11-05T05:34:14.917Z,8.90
2022-11-05T05:36:42.791Z,8.00
2022-11-05T05:39:13.511Z,8.20
2022-11-05T05:41:41.467Z,9.40
2022-11-05T05:44:09.395Z,8.40
2022-11-05T05:46:37.334Z,9.90
2022-11-05T05:49:11.076Z,8.10
2022-11-05T05:51:40.529Z,9.90
2022-11-05T05:54:08.607Z,8.40
2022-11-05T05:56:36.498Z,9.30
2022-11-05T05:59:05.611Z,8.60
2022-11-05T06:01:34.196Z,9.00
2022-11-05T06:04:02.599Z,10.80
2022-11-05T06:06:30.608Z,10.70
2022-11-05T06:08:58.531Z,12.10
2022-11-05T06:11:26.498Z,12.60
2022-11-05T06:13:54.624Z,13.60
2022-11-05T06:16:22.567Z,11.80
2022-11-05T06:18:50.511Z,10.70
2022-11-05T06:21:18.537Z,11.70
2022-11-05T06:23:48.429Z,10.80
2022-11-05T06:26:18.175Z,10.60
2022-11-05T06:28:46.810Z,9.80
2022-11-05T06:31:15.319Z,10.20
2022-11-05T06:33:43.210Z,12.90
2022-11-05T06:36:15.493Z,14.20
2022-11-05T06:38:43.870Z,12.00
2022-11-05T06:41:11.870Z,9.70
2022-11-05T06:43:39.981Z,9.60
2022-11-05T06:46:09.671Z,11.30
2022-11-05T06:48:38.144Z,10.80
2022-11-05T06:51:07.561Z,12.00
2022-11-05T06:53:35.987Z,11.20
2022-11-05T06:56:06.203Z,11.10
2022-11-05T06:58:34.420Z,11.30
2022-11-05T07:01:10.370Z,11.20
2022-11-05T07:03:39.523Z,11.20
2022-11-05T07:06:07.667Z,11.70
2022-11-05T07:08:37.679Z,11.80
2022-11-05T07:11:06.602Z,11.10
2022-11-05T07:13:34.550Z,26.20
2022-11-05T07:16:02.528Z,12.60
2022-11-05T07:18:30.396Z,12.30
2022-11-05T07:21:00.289Z,12.40
2022-11-05T07:23:28.299Z,15.00
2022-11-05T07:25:56.275Z,15.20
2022-11-05T07:28:24.135Z,13.80
2022-11-05T07:30:52.064Z,16.90
2022-11-05T07:33:20.020Z,16.90
2022-11-05T07:35:47.948Z,18.50
2022-11-05T07:38:15.896Z,17.40
2022-11-05T07:40:43.815Z,17.10
2022-11-05T07:43:11.912Z,17.70
2022-11-05T07:45:40.118Z,17.40
2022-11-05T07:48:08.396Z,17.50
2022-11-05T07:50:37.738Z,16.50
2022-11-05T07:53:07.834Z,14.70
2022-11-05T07:55:36.086Z,13.90
2022-11-05T07:58:04.597Z,14.80
2022-11-05T08:00:33.847Z,13.30
2022-11-05T08:03:15.301Z,15.60
2022-11-05T08:05:46.368Z,15.20
2022-11-05T08:08:19.383Z,15.50
2022-11-05T08:10:47.568Z,15.70
2022-11-05T08:13:16.248Z,16.60
2022-11-05T08:15:44.783Z,17.50
2022-11-05T08:18:15.361Z,26.90
2022-11-05T08:20:44.944Z,29.30
2022-11-05T08:23:13.318Z,35.00
2022-11-05T08:25:42.188Z,35.00
2022-11-05T08:28:13.059Z,24.90
2022-11-05T08:30:41.410Z,22.40
2022-11-05T08:33:13.279Z,23.20
2022-11-05T08:35:41.831Z,21.60
2022-11-05T08:38:13.893Z,21.60
2022-11-05T08:40:43.268Z,25.30
2022-11-05T08:43:13.803Z,24.60
2022-11-05T08:45:42.450Z,27.00
2022-11-05T08:48:15.054Z,26.80
2022-11-05T08:50:44.971Z,25.20
2022-11-05T08:53:14.310Z,26.90
2022-11-05T08:55:44.158Z,29.20
2022-11-05T08:58:17.783Z,24.60
2022-11-05T09:00:48.382Z,26.10
2022-11-05T09:03:17.242Z,24.20
2022-11-05T09:05:45.470Z,27.30
2022-11-05T09:08:16.597Z,24.50
2022-11-05T09:10:45.902Z,30.70
2022-11-05T09:13:18.836Z,29.70
2022-11-05T09:15:49.373Z,27.80
2022-11-05T09:18:18.886Z,27.40
2022-11-05T09:20:47.219Z,28.00
2022-11-05T09:23:15.849Z,29.00
2022-11-05T09:25:44.958Z,27.80
2022-11-05T09:28:17.206Z,30.60
2022-11-05T09:30:50.921Z,32.40
2022-11-05T09:33:22.116Z,30.60
2022-11-05T09:35:51.915Z,33.80
2022-11-05T09:38:19.832Z,29.30
2022-11-05T09:40:54.816Z,28.10
2022-11-05T09:43:31.764Z,27.40
2022-11-05T09:46:06.916Z,24.70
2022-11-05T09:48:35.906Z,30.50
2022-11-05T09:51:05.864Z,31.60
2022-11-05T09:53:37.058Z,31.50
2022-11-05T09:56:11.707Z,31.10
2022-11-05T09:58:45.435Z,24.90
2022-11-05T10:01:23.386Z,21.40
2022-11-05T10:03:56.151Z,21.60
2022-11-05T10:06:26.629Z,20.80
2022-11-05T10:09:03.870Z,22.50
2022-11-05T10:11:43.548Z,18.30
2022-11-05T10:14:21.696Z,18.00
2022-11-05T10:16:56.187Z,17.80
2022-11-05T10:22:11.921Z,18.00
2022-11-05T10:24:47.260Z,15.00
2022-11-05T10:27:23.542Z,14.50
2022-11-05T10:29:51.820Z,15.60
2022-11-05T10:32:30.827Z,13.70
2022-11-05T10:35:02.764Z,12.30
2022-11-05T10:37:33.504Z,15.00
2022-11-05T10:40:30.442Z,16.20
2022-11-05T10:43:07.003Z,15.10
2022-11-05T10:45:52.866Z,15.20
2022-11-05T10:48:26.895Z,13.70
2022-11-05T10:50:55.203Z,14.70
2022-11-05T10:53:39.145Z,14.70
2022-11-05T10:56:30.951Z,15.20
2022-11-05T10:59:00.688Z,14.70
2022-11-05T11:01:30.296Z,15.00
2022-11-05T11:04:20.639Z,16.20
2022-11-05T11:06:54.359Z,16.50
2022-11-05T11:09:28.591Z,16.70
2022-11-05T11:12:07.614Z,17.90
2022-11-05T11:14:35.593Z,18.70
2022-11-05T11:17:26.997Z,18.20
2022-11-05T11:20:22.649Z,19.10
2022-11-05T11:23:01.368Z,17.60
2022-11-05T11:25:51.448Z,18.20
2022-11-05T11:28:36.005Z,18.00
2022-11-05T11:31:08.835Z,20.20
2022-11-05T11:33:39.715Z,25.30
2022-11-05T11:36:10.681Z,30.90
2022-11-05T11:38:40.324Z,33.10
2022-11-05T11:41:11.018Z,38.20
2022-11-05T11:43:41.597Z,27.10
2022-11-05T11:46:20.119Z,27.10
2022-11-05T11:48:49.500Z,30.20
2022-11-05T11:51:30.536Z,30.00
2022-11-05T11:54:00.223Z,26.20
2022-11-05T11:56:30.444Z,25.20
2022-11-05T11:59:08.927Z,17.30
2022-11-05T12:01:40.106Z,15.40
2022-11-05T12:04:40.634Z,16.60
2022-11-05T12:07:17.357Z,14.40
2022-11-05T12:10:15.005Z,14.10
2022-11-05T12:13:17.578Z,15.10
2022-11-05T12:16:06.303Z,14.10
2022-11-05T12:18:36.896Z,15.00
2022-11-05T12:21:41.108Z,15.10
2022-11-05T12:24:30.750Z,15.40
2022-11-05T12:27:20.052Z,16.10
2022-11-05T12:30:05.561Z,12.60
2022-11-05T12:33:07.747Z,14.30
2022-11-05T12:35:58.258Z,12.70
2022-11-05T12:38:33.382Z,17.40
2022-11-05T12:41:08.156Z,29.80
2022-11-05T12:43:39.452Z,21.10
2022-11-05T12:46:10.594Z,18.60
2022-11-05T12:48:59.781Z,22.40
2022-11-05T12:51:58.588Z,16.30
2022-11-05T12:54:47.837Z,12.00
2022-11-05T12:57:17.892Z,13.40
2022-11-05T12:59:51.529Z,12.30
2022-11-05T13:02:48.066Z,12.70
2022-11-05T13:05:40.398Z,13.40
2022-11-05T13:08:20.307Z,17.60
2022-11-05T13:10:55.184Z,16.40
2022-11-05T13:13:23.068Z,20.80
2022-11-05T13:15:55.407Z,18.30
2022-11-05T13:18:54.075Z,18.00
2022-11-05T13:21:25.963Z,15.40
2022-11-05T13:24:04.913Z,11.90
2022-11-05T13:26:45.150Z,12.40
2022-11-05T13:29:43.869Z,13.00
2022-11-05T13:32:39.496Z,11.90
2022-11-05T13:35:16.025Z,16.80
2022-11-05T13:38:07.430Z,14.40
2022-11-05T13:41:18.535Z,12.70
2022-11-05T13:44:31.285Z,12.50
2022-11-05T13:47:33.447Z,15.50
2022-11-05T13:50:16.819Z,17.30
2022-11-05T13:52:44.853Z,13.70
2022-11-05T13:55:36.120Z,12.60
2022-11-05T13:58:27.914Z,12.60
2022-11-05T14:01:27.145Z,12.50
2022-11-05T14:03:56.751Z,12.10
2022-11-05T14:06:36.585Z,13.40
2022-11-05T14:09:10.072Z,14.80
2022-11-05T14:11:41.837Z,14.50
2022-11-05T14:14:24.119Z,15.00
2022-11-05T14:16:54.804Z,19.50
2022-11-05T14:19:32.661Z,18.90
2022-11-05T14:22:32.441Z,18.60
2022-11-05T14:25:19.379Z,13.80
2022-11-05T14:27:49.683Z,12.00
2022-11-05T14:30:54.857Z,11.70
2022-11-05T14:33:25.689Z,12.40
2022-11-05T14:36:33.855Z,11.20
2022-11-05T14:39:21.880Z,11.80
2022-11-05T14:41:57.851Z,11.80
2022-11-05T14:44:27.125Z,13.40
2022-11-05T14:47:17.235Z,14.20
2022-11-05T14:49:53.198Z,13.40
2022-11-05T14:52:21.593Z,15.90
2022-11-05T14:54:56.303Z,18.50
2022-11-05T14:57:42.843Z,14.10
2022-11-05T15:00:29.452Z,15.90
2022-11-05T15:03:03.623Z,15.30
2022-11-05T15:05:33.299Z,16.00
2022-11-05T15:08:29.237Z,13.00
2022-11-05T15:11:07.376Z,12.90
2022-11-05T15:13:42.996Z,13.00
2022-11-05T15:16:20.937Z,15.50
2022-11-05T15:18:49.151Z,18.10
2022-11-05T15:21:20.185Z,18.80
2022-11-05T15:23:52.431Z,19.80
2022-11-05T15:26:23.671Z,21.60
2022-11-05T15:28:53.114Z,17.90
2022-11-05T15:31:41.267Z,18.60
2022-11-05T15:34:25.032Z,16.30
2022-11-05T15:36:56.443Z,14.10
2022-11-05T15:39:40.592Z,13.80
2022-11-05T15:42:16.714Z,15.80
2022-11-05T15:45:18.961Z,15.00
2022-11-05T15:47:46.903Z,12.70
2022-11-05T15:50:16.067Z,14.60
2022-11-05T15:52:54.767Z,17.80
2022-11-05T15:55:25.545Z,13.90
2022-11-05T15:58:01.093Z,16.90
2022-11-05T16:00:33.204Z,14.40
2022-11-05T16:03:06.178Z,16.70
2022-11-05T16:05:41.055Z,16.40
2022-11-05T16:08:19.179Z,18.00
2022-11-05T16:10:50.865Z,14.10
2022-11-05T16:13:34.229Z,20.30
2022-11-05T16:16:21.566Z,18.40
2022-11-05T16:21:22.723Z,19.80
2022-11-05T16:24:00.719Z,18.30
2022-11-05T16:27:02.289Z,17.30
2022-11-05T16:29:29.358Z,17.90
2022-11-05T16:32:04.125Z,19.20
2022-11-05T16:34:42.903Z,20.40
2022-11-05T16:37:14.928Z,20.30
2022-11-05T16:39:42.863Z,20.80
2022-11-05T16:42:23.019Z,18.60
2022-11-05T16:44:52.612Z,20.50
2022-11-05T16:47:21.777Z,21.50
2022-11-05T16:49:50.107Z,29.80
2022-11-05T16:52:18.257Z,27.70
2022-11-05T16:54:46.137Z,20.00
2022-11-05T16:57:30.728Z,27.90
2022-11-05T17:00:00.479Z,25.30
2022-11-05T17:02:28.759Z,21.80
2022-11-05T17:04:56.807Z,22.80
2022-11-05T17:07:24.731Z,27.40
2022-11-05T17:09:52.686Z,22.40
2022-11-05T17:12:20.550Z,23.20
2022-11-05T17:14:48.460Z,22.10
2022-11-05T17:17:16.309Z,20.50
2022-11-05T17:19:44.620Z,20.20
2022-11-05T17:22:12.477Z,20.60
2022-11-05T17:24:40.370Z,20.80
2022-11-05T17:27:08.303Z,27.80
2022-11-05T17:29:36.226Z,26.90
2022-11-05T17:32:06.414Z,25.10
2022-11-05T17:34:34.295Z,21.40
2022-11-05T17:37:02.288Z,28.40
2022-11-05T17:39:31.813Z,22.20
2022-11-05T17:42:00.224Z,22.50
2022-11-05T17:44:28.204Z,17.60
2022-11-05T17:46:56.131Z,16.70
2022-11-05T17:49:24.063Z,15.40
2022-11-05T17:51:52.142Z,18.00
2022-11-05T17:54:20.012Z,16.70
2022-11-05T17:56:47.935Z,18.00
2022-11-05T17:59:15.892Z,17.00
2022-11-05T18:01:44.988Z,19.30
2022-11-05T18:04:13.411Z,20.30
2022-11-05T18:06:41.847Z,18.80
2022-11-05T18:09:11.029Z,22.90
2022-11-05T18:11:40.092Z,18.50
2022-11-05T18:14:08.405Z,21.10
2022-11-05T18:16:36.741Z,26.00
2022-11-05T18:19:05.545Z,29.30
2022-11-05T18:21:33.510Z,21.80
2022-11-05T18:24:06.144Z,26.90
2022-11-05T18:26:34.908Z,21.20
2022-11-05T18:29:05.047Z,31.00
2022-11-05T18:31:33.126Z,24.90
2022-11-05T18:34:01.336Z,25.60
2022-11-05T18:36:31.224Z,23.20
2022-11-05T18:39:00.603Z,24.10
2022-11-05T18:41:28.763Z,25.30
2022-11-05T18:44:01.193Z,24.70
2022-11-05T18:46:56.539Z,24.10
2022-11-05T18:49:18.492Z,28.30
2022-11-05T18:51:46.425Z,23.10
2022-11-05T18:54:14.609Z,23.50
2022-11-05T18:56:45.671Z,23.70
2022-11-05T19:02:05.964Z,27.50
2022-11-05T19:04:36.443Z,27.00
2022-11-05T19:07:05.893Z,24.50
2022-11-05T19:09:35.909Z,28.40
2022-11-05T19:12:05.775Z,22.40
2022-11-05T19:14:34.962Z,25.50
2022-11-05T19:17:03.593Z,21.50
2022-11-05T19:19:31.787Z,23.00
2022-11-05T19:21:59.934Z,18.80
2022-11-05T19:24:28.269Z,28.60
2022-11-05T19:26:56.375Z,23.00
2022-11-05T19:29:24.367Z,33.80
2022-11-05T19:31:52.326Z,24.40
2022-11-05T19:34:20.681Z,22.80
2022-11-05T19:36:48.756Z,21.80
2022-11-05T19:39:16.897Z,26.30
2022-11-05T19:41:44.820Z,24.90
2022-11-05T19:44:13.759Z,22.50
2022-11-05T19:46:41.810Z,22.70
2022-11-05T19:49:11.842Z,24.50
2022-11-05T19:51:39.786Z,22.70
2022-11-05T19:54:07.807Z,23.10
2022-11-05T19:56:36.946Z,20.50
2022-11-05T19:59:09.129Z,21.80
2022-11-05T20:01:37.585Z,19.00
2022-11-05T20:04:06.145Z,22.80
2022-11-05T20:06:40.695Z,23.90
2022-11-05T20:09:27.420Z,23.70
2022-11-05T20:11:56.842Z,25.00
2022-11-05T20:14:26.277Z,25.30
2022-11-05T20:16:54.715Z,32.60
2022-11-05T20:19:23.500Z,34.50
2022-11-05T20:21:51.722Z,32.50
2022-11-05T20:24:24.873Z,25.40
2022-11-05T20:26:55.320Z,45.40
2022-11-05T20:29:27.850Z,29.60
2022-11-05T20:31:58.915Z,26.00
2022-11-05T20:34:29.543Z,27.60
2022-11-05T20:36:57.765Z,29.50
2022-11-05T20:39:26.726Z,30.80
2022-11-05T20:41:56.706Z,26.70
2022-11-05T20:44:24.951Z,34.50
2022-11-05T20:46:52.941Z,23.90
2022-11-05T20:49:25.407Z,26.40
2022-11-05T20:51:54.557Z,28.90
2022-11-05T20:54:22.722Z,31.90
2022-11-05T20:56:50.756Z,25.70
2022-11-05T20:59:19.621Z,26.80
2022-11-05T21:01:47.987Z,33.90
2022-11-05T21:04:16.081Z,27.20
2022-11-05T21:06:44.036Z,26.30
2022-11-05T21:09:13.023Z,30.70
2022-11-05T21:12:00.143Z,30.50
2022-11-05T21:14:28.375Z,23.80
2022-11-05T21:16:56.388Z,29.10
2022-11-05T21:19:24.413Z,24.80
2022-11-05T21:21:52.590Z,26.30
2022-11-05T21:24:20.840Z,23.00
2022-11-05T21:26:50.159Z,26.00
2022-11-05T21:29:19.665Z,24.00
2022-11-05T21:31:47.745Z,25.30
2022-11-05T21:34:17.409Z,27.40
2022-11-05T21:36:47.180Z,26.20
2022-11-05T21:39:15.254Z,30.30
2022-11-05T21:41:43.201Z,24.10
2022-11-05T21:44:11.645Z,23.60
2022-11-05T21:46:39.593Z,25.70
2022-11-05T21:49:08.053Z,30.00
2022-11-05T21:51:55.008Z,24.50
2022-11-05T21:54:41.703Z,29.10
2022-11-05T21:57:33.221Z,27.20
2022-11-05T22:00:03.884Z,26.30
2022-11-05T22:02:32.332Z,29.80
2022-11-05T22:05:02.354Z,29.10
2022-11-05T22:07:36.530Z,23.40
2022-11-05T22:10:14.694Z,25.40
2022-11-05T22:12:45.249Z,25.90
2022-11-05T22:15:14.358Z,22.20
2022-11-05T22:17:46.479Z,23.50
2022-11-05T22:20:16.105Z,27.90
2022-11-05T22:22:44.857Z,21.80
2022-11-05T22:25:13.556Z,28.00
2022-11-05T22:27:43.886Z,24.50
2022-11-05T22:30:13.470Z,23.20
2022-11-05T22:32:41.519Z,25.00
2022-11-05T22:35:09.867Z,22.30
2022-11-05T22:37:37.909Z,24.00
2022-11-05T22:40:06.389Z,20.40
2022-11-05T22:42:34.436Z,25.70
2022-11-05T22:45:02.632Z,30.50
2022-11-05T22:47:30.547Z,24.90
2022-11-05T22:49:58.549Z,35.10
2022-11-05T22:52:26.493Z,23.50
2022-11-05T22:54:54.443Z,24.50
2022-11-05T22:57:22.335Z,23.10
2022-11-05T22:59:50.534Z,25.90
2022-11-05T23:02:18.632Z,23.80
2022-11-05T23:04:46.691Z,24.00
2022-11-05T23:07:33.094Z,26.80
2022-11-05T23:10:19.979Z,21.20
2022-11-05T23:12:47.915Z,26.70
2022-11-05T23:15:34.692Z,22.30
2022-11-05T23:18:21.234Z,23.90
2022-11-05T23:21:07.618Z,24.50
2022-11-05T23:23:54.403Z,22.00
2022-11-05T23:26:41.010Z,22.60
2022-11-05T23:29:09.110Z,25.60
2022-11-05T23:31:55.788Z,29.00
2022-11-05T23:34:23.689Z,28.80
2022-11-05T23:37:10.292Z,27.70
2022-11-05T23:39:42.435Z,24.50
2022-11-05T23:42:30.366Z,25.80
2022-11-05T23:45:16.993Z,24.30
2022-11-05T23:48:03.961Z,25.20
2022-11-05T23:50:37.130Z,29.80
2022-11-05T23:53:08.271Z,24.90
2022-11-05T23:55:37.091Z,28.40
2022-11-05T23:58:05.677Z,28.60
